This is the latest recevied weather packets stored in our database for station/object DO7ZT-13. If no packets are shown the sender has not sent any weather packets the latest 10 day(s).
| Time | Temp. | Humidity | Pressure | Rain* | Wind** | Luminosity | Snow |
|---|---|---|---|---|---|---|---|
| 1777880720 | 18.89° C | 43% | 1013.9 hPa | 0 mm | 0.45 m/s, 250° | - | - |
| 1777880408 | 18.89° C | 43% | 1013.9 hPa | 0 mm | 0 m/s | - | - |
| 1777880120 | 18.89° C | 42% | 1013.9 hPa | 0 mm | 1.79 m/s, 144° | - | - |
| 1777879808 | 18.89° C | 43% | 1013.8 hPa | 0 mm | 0 m/s | - | - |
| 1777879520 | 18.89° C | 44% | 1013.8 hPa | 0 mm | 0.45 m/s, 249° | - | - |
| 1777879207 | 18.89° C | 44% | 1013.8 hPa | 0 mm | 0.45 m/s, 206° | - | - |
| 1777878920 | 18.89° C | 43% | 1013.8 hPa | 0 mm | 0.89 m/s, 235° | - | - |
| 1777878608 | 18.89° C | 43% | 1013.8 hPa | 0 mm | 0 m/s | - | - |
| 1777878320 | 17.78° C | 44% | 1013.8 hPa | 0 mm | 0 m/s | - | - |
| 1777878007 | 18.89° C | 43% | 1013.7 hPa | 0 mm | 0.89 m/s, 258° | - | - |
| 1777877720 | 18.89° C | 45% | 1013.7 hPa | 0 mm | 0.45 m/s, 312° | - | - |
| 1777877408 | 18.89° C | 44% | 1013.7 hPa | 0 mm | 0.45 m/s, 166° | - | - |
| 1777877120 | 18.89° C | 43% | 1013.6 hPa | 0 mm | 0.45 m/s, 180° | - | - |
| 1777876808 | 17.78° C | 44% | 1013.6 hPa | 0 mm | 0.89 m/s, 141° | - | - |
| 1777876520 | 17.78° C | 45% | 1013.6 hPa | 0 mm | 1.34 m/s, 132° | - | - |
| 1777876208 | 17.78° C | 44% | 1013.6 hPa | 0 mm | 0.89 m/s, 179° | - | - |
| 1777875920 | 17.78° C | 46% | 1013.6 hPa | 0 mm | 0.89 m/s, 150° | - | - |
| 1777875608 | 17.22° C | 47% | 1013.6 hPa | 0 mm | 0.89 m/s, 156° | - | - |
| 1777875320 | 17.22° C | 49% | 1013.8 hPa | 0 mm | 0.45 m/s, 134° | - | - |
| 1777875008 | 17.22° C | 48% | 1013.8 hPa | 0 mm | 0.45 m/s, 224° | - | - |
| 1777874733 | 17.22° C | 48% | 1013.8 hPa | 0 mm | 0.89 m/s, 180° | - | - |
| 1777874420 | 17.22° C | 47% | 1013.6 hPa | 0 mm | 0.89 m/s, 162° | - | - |
| 1777874108 | 17.22° C | 47% | 1013.6 hPa | 0 mm | 0.89 m/s, 177° | - | - |
| 1777873819 | 17.22° C | 46% | 1013.6 hPa | 0 mm | 1.34 m/s, 179° | - | - |
| 1777873507 | 17.22° C | 47% | 1013.2 hPa | 0 mm | 0.45 m/s, 183° | - | - |
* Rain latest hour (hover to see other rain measurements)
** Current wind speed in m/s (hover to see current wind gust speed)